Time;durP1;ratioP1;P1;durP2;ratioP2;P2;SDS_P1;SDS_P2;PMS_P1;PMS_P2;Temp;Humidity;BMP_temperature;BMP_pressure;BME280_temperature;BME280_humidity;BME280_pressure;Samples;Min_cycle;Max_cycle;Signal;HPM_P1;HPM_P2
2021/10/30 00:01:22;;;;;;;2.42;2.13;;;;;;;;;;7327906;19;161923;-14
2021/10/30 00:03:54;;;;;;;2.50;2.30;;;;;;;;;;7327218;19;162526;-15
2021/10/30 00:06:26;;;;;;;2.72;2.08;;;;;;;;;;7328928;19;154204;-15
2021/10/30 00:08:58;;;;;;;2.58;2.38;;;;;;;;;;7328696;19;153628;-13
2021/10/30 00:11:30;;;;;;;3.10;2.60;;;;;;;;;;7326799;19;161898;-16
2021/10/30 00:14:01;;;;;;;2.50;2.30;;;;;;;;;;7328467;19;162727;-16
2021/10/30 00:16:35;;;;;;;2.08;1.92;;;;;;;;;;7315532;19;153881;-13
2021/10/30 00:19:07;;;;;;;2.28;1.83;;;;;;;;;;7329984;19;153567;-14
2021/10/30 00:21:38;;;;;;;1.80;1.70;;;;;;;;;;7328028;19;161774;-15
2021/10/30 00:24:09;;;;;;;2.00;1.75;;;;;;;;;;7327229;19;162637;-13
2021/10/30 00:26:40;;;;;;;2.20;2.10;;;;;;;;;;7328173;19;154086;-12
2021/10/30 00:29:11;;;;;;;3.67;2.15;;;;;;;;;;7327685;19;153473;-12
2021/10/30 00:31:45;;;;;;;1.90;1.80;;;;;;;;;;7326308;19;161525;-14
2021/10/30 00:34:17;;;;;;;1.98;1.63;;;;;;;;;;7327087;19;162636;-14
2021/10/30 00:36:48;;;;;;;1.95;1.83;;;;;;;;;;7330650;19;153959;-13
2021/10/30 00:39:20;;;;;;;2.30;2.10;;;;;;;;;;7330598;19;153715;-13
2021/10/30 00:41:53;;;;;;;2.58;1.85;;;;;;;;;;7326996;19;161598;-13
2021/10/30 00:44:24;;;;;;;;;;;;;;;;;;7328302;19;162499;-13
2021/10/30 00:46:57;;;;;;;2.40;1.70;;;;;;;;;;7327929;19;154269;-13
2021/10/30 00:49:29;;;;;;;3.20;1.80;;;;;;;;;;7326586;19;153541;-14
2021/10/30 00:52:00;;;;;;;2.95;1.80;;;;;;;;;;7325325;19;162180;-13
2021/10/30 09:07:09;;;;;;;4.20;3.90;;;;;;;;;;7370292;19;132641;-16
2021/10/30 09:09:42;;;;;;;3.97;3.65;;;;;;;;;;7363870;19;153693;-18
2021/10/30 09:12:25;;;;;;;4.70;4.40;;;;;;;;;;7362871;19;162263;-13
2021/10/30 09:14:56;;;;;;;4.55;4.25;;;;;;;;;;7364814;19;163018;-15
2021/10/30 09:17:28;;;;;;;4.85;4.45;;;;;;;;;;7366644;19;153949;-17
2021/10/30 09:19:59;;;;;;;5.47;5.07;;;;;;;;;;7366946;19;153586;-13
2021/10/30 09:22:33;;;;;;;4.55;4.22;;;;;;;;;;7365514;19;162196;-14
2021/10/30 09:25:08;;;;;;;5.90;5.47;;;;;;;;;;7367345;19;162493;-17
2021/10/30 09:28:01;;;;;;;6.07;5.45;;;;;;;;;;7361813;19;153901;-14
2021/10/30 09:30:35;;;;;;;4.80;4.50;;;;;;;;;;7364430;19;153667;-17
2021/10/30 09:33:10;;;;;;;6.53;6.03;;;;;;;;;;7362388;19;162174;-19
2021/10/30 09:35:44;;;;;;;5.53;5.03;;;;;;;;;;7362466;19;162606;-15
2021/10/30 09:38:29;;;;;;;6.75;6.03;;;;;;;;;;7362668;19;153913;-17
2021/10/30 09:41:02;;;;;;;6.50;6.00;;;;;;;;;;7366163;19;153728;-16
2021/10/30 09:43:35;;;;;;;5.85;5.45;;;;;;;;;;7360238;19;161842;-15
2021/10/30 09:46:10;;;;;;;5.90;5.50;;;;;;;;;;7357523;19;162904;-17
2021/10/30 09:48:43;;;;;;;6.22;5.82;;;;;;;;;;7366692;19;153968;-14
2021/10/30 09:51:28;;;;;;;;;;;;;;;;;;7361812;19;153610;-17
2021/10/30 09:54:05;;;;;;;5.90;5.40;;;;;;;;;;7366055;19;161998;-17
2021/10/30 09:56:49;;;;;;;6.18;5.68;;;;;;;;;;7361259;19;162514;-17
2021/10/30 09:59:21;;;;;;;6.20;5.70;;;;;;;;;;7363612;19;154111;-17
2021/10/30 10:01:53;;;;;;;6.00;5.60;;;;;;;;;;7363143;19;153768;-15
2021/10/30 10:04:25;;;;;;;6.13;5.68;;;;;;;;;;7365809;19;162032;-13
2021/10/30 10:06:57;;;;;;;6.50;6.00;;;;;;;;;;7347619;19;162369;-15
2021/10/30 10:09:32;;;;;;;6.35;5.90;;;;;;;;;;7335242;19;154087;-14
2021/10/30 10:12:07;;;;;;;5.82;5.43;;;;;;;;;;7330780;19;153619;-14
2021/10/30 10:14:40;;;;;;;6.17;5.67;;;;;;;;;;7332278;19;161828;-16
2021/10/30 10:17:12;;;;;;;6.30;5.80;;;;;;;;;;7334248;19;162364;-17
2021/10/30 10:19:44;;;;;;;6.97;6.30;;;;;;;;;;7333085;19;154080;-15
2021/10/30 10:22:16;;;;;;;5.15;4.75;;;;;;;;;;7336274;19;153613;-14
2021/10/30 10:24:50;;;;;;;6.25;5.85;;;;;;;;;;7332774;19;161893;-14
2021/10/30 10:27:21;;;;;;;6.15;5.65;;;;;;;;;;7337040;19;162420;-14
2021/10/30 10:29:58;;;;;;;7.32;6.10;;;;;;;;;;7334154;19;154115;-14
2021/10/30 10:32:29;;;;;;;5.85;5.45;;;;;;;;;;7333839;19;153638;-14
2021/10/30 10:35:07;;;;;;;5.70;4.60;;;;;;;;;;7333762;19;161981;-15
2021/10/30 10:37:50;;;;;;;5.60;5.10;;;;;;;;;;7330608;19;162339;-17
2021/10/30 10:40:34;;;;;;;5.22;4.80;;;;;;;;;;7333551;19;153980;-17
2021/10/30 10:43:05;;;;;;;4.85;4.32;;;;;;;;;;7335696;19;153700;-16
2021/10/30 10:45:53;;;;;;;4.25;3.95;;;;;;;;;;7333138;19;162024;-16
2021/10/30 10:48:25;;;;;;;4.38;4.07;;;;;;;;;;7331944;19;162435;-15
2021/10/30 10:50:56;;;;;;;4.95;3.80;;;;;;;;;;7337446;19;154076;-16
2021/10/30 10:53:30;;;;;;;4.28;3.83;;;;;;;;;;7336943;19;153093;-16
2021/10/30 10:56:15;;;;;;;4.50;3.88;;;;;;;;;;7332123;19;161841;-15
2021/10/30 10:59:12;;;;;;;4.13;3.47;;;;;;;;;;7331739;19;162678;-17
2021/10/30 11:02:13;;;;;;;5.38;3.38;;;;;;;;;;7337645;19;154299;-16
2021/10/30 11:04:53;;;;;;;4.53;3.33;;;;;;;;;;7332440;19;153808;-14
2021/10/30 11:07:25;;;;;;;5.68;3.53;;;;;;;;;;7332483;19;161685;-16
2021/10/30 11:09:57;;;;;;;5.10;3.50;;;;;;;;;;7332360;19;162397;-16
2021/10/30 11:12:32;;;;;;;3.50;3.20;;;;;;;;;;7332114;19;154093;-17
2021/10/30 11:15:08;;;;;;;5.63;3.38;;;;;;;;;;7331739;19;153521;-15
2021/10/30 11:17:49;;;;;;;4.63;3.10;;;;;;;;;;7327892;19;161833;-16
2021/10/30 11:20:22;;;;;;;4.70;2.88;;;;;;;;;;7334674;19;162835;-17
2021/10/30 11:22:55;;;;;;;;;;;;;;;;;;7333812;19;154292;-15
2021/10/30 11:25:29;;;;;;;3.38;3.00;;;;;;;;;;7336746;19;153562;-16
2021/10/30 11:28:04;;;;;;;4.50;2.75;;;;;;;;;;7330699;19;161643;-17
2021/10/30 11:30:37;;;;;;;3.22;2.95;;;;;;;;;;7331110;19;162339;-16
2021/10/30 11:33:24;;;;;;;2.92;2.67;;;;;;;;;;7334893;19;153938;-17
2021/10/30 11:36:04;;;;;;;3.60;2.90;;;;;;;;;;7332039;19;153497;-14
2021/10/30 11:38:37;;;;;;;3.85;3.00;;;;;;;;;;7331909;19;161754;-16
2021/10/30 11:41:09;;;;;;;;;;;;;;;;;;7332130;19;162521;-16
2021/10/30 11:43:44;;;;;;;3.65;2.92;;;;;;;;;;7331894;19;153847;-14
2021/10/30 11:46:17;;;;;;;3.33;2.78;;;;;;;;;;7331729;19;153542;-17
2021/10/30 11:48:55;;;;;;;4.15;2.85;;;;;;;;;;7331337;19;161892;-16
2021/10/30 11:51:40;;;;;;;3.40;2.63;;;;;;;;;;7331369;19;162598;-16
2021/10/30 11:54:15;;;;;;;4.07;2.97;;;;;;;;;;7332096;19;153907;-13
2021/10/30 11:56:49;;;;;;;3.17;2.25;;;;;;;;;;7333982;19;153557;-17
2021/10/30 11:59:23;;;;;;;3.88;2.55;;;;;;;;;;7330305;19;162048;-16
2021/10/30 12:02:02;;;;;;;2.92;2.63;;;;;;;;;;7331785;19;162582;-16
2021/10/30 12:04:36;;;;;;;3.00;2.45;;;;;;;;;;7333307;19;154054;-17
2021/10/30 12:07:17;;;;;;;3.53;2.92;;;;;;;;;;7330744;19;153656;-16
2021/10/30 12:09:50;;;;;;;2.75;2.55;;;;;;;;;;7332439;19;162125;-16
2021/10/30 12:12:26;;;;;;;2.85;2.65;;;;;;;;;;7330545;19;162425;-13
2021/10/30 12:15:00;;;;;;;2.80;2.50;;;;;;;;;;7332947;19;154285;-17
2021/10/30 12:17:34;;;;;;;3.22;2.70;;;;;;;;;;7327615;19;153893;-16
2021/10/30 12:20:07;;;;;;;2.78;2.58;;;;;;;;;;7328716;19;161823;-17
2021/10/30 12:22:41;;;;;;;3.45;1.98;;;;;;;;;;7328841;19;162620;-15
2021/10/30 12:25:17;;;;;;;1.58;1.48;;;;;;;;;;7328386;19;154181;-15
2021/10/30 12:27:56;;;;;;;1.77;1.65;;;;;;;;;;7330906;19;153655;-15
2021/10/30 12:30:34;;;;;;;1.13;1.00;;;;;;;;;;7334218;19;161977;-15
2021/10/30 12:33:13;;;;;;;1.20;1.20;;;;;;;;;;7330397;19;162363;-16
2021/10/30 12:35:48;;;;;;;0.90;0.80;;;;;;;;;;7330672;19;153993;-15
2021/10/30 12:38:22;;;;;;;1.10;1.00;;;;;;;;;;7328173;19;153510;-17
2021/10/30 12:40:55;;;;;;;1.02;0.93;;;;;;;;;;7331137;19;161820;-15
2021/10/30 12:43:30;;;;;;;0.90;0.90;;;;;;;;;;7331329;19;162367;-16
2021/10/30 12:46:05;;;;;;;0.75;0.75;;;;;;;;;;7330431;19;154157;-15
2021/10/30 12:48:39;;;;;;;1.00;0.80;;;;;;;;;;7333306;19;153945;-17
2021/10/30 12:51:16;;;;;;;1.30;0.82;;;;;;;;;;7332828;19;161803;-16
2021/10/30 12:53:51;;;;;;;1.50;0.90;;;;;;;;;;7333357;19;162589;-15
2021/10/30 12:56:23;;;;;;;0.90;0.90;;;;;;;;;;7329892;19;154027;-17
2021/10/30 12:59:01;;;;;;;1.40;0.75;;;;;;;;;;7330009;19;153761;-16
2021/10/30 13:01:35;;;;;;;0.70;0.70;;;;;;;;;;7330288;19;161768;-15
2021/10/30 13:04:08;;;;;;;1.00;0.77;;;;;;;;;;7327170;19;162681;-17
2021/10/30 13:06:40;;;;;;;;;;;;;;;;;;7328169;19;154125;-16
2021/10/30 13:09:13;;;;;;;0.70;0.70;;;;;;;;;;7329557;19;153337;-16
2021/10/30 13:11:46;;;;;;;;;;;;;;;;;;7329350;19;161838;-16
2021/10/30 13:14:18;;;;;;;1.65;0.70;;;;;;;;;;7328970;19;162560;-15
2021/10/30 13:16:52;;;;;;;0.88;0.85;;;;;;;;;;7329132;19;154298;-14
2021/10/30 13:19:23;;;;;;;0.85;0.70;;;;;;;;;;7325404;19;153770;-15
2021/10/30 13:21:56;;;;;;;0.95;0.70;;;;;;;;;;7329640;19;161982;-16
2021/10/30 13:24:27;;;;;;;0.70;0.70;;;;;;;;;;7328782;19;162416;-15
2021/10/30 13:26:58;;;;;;;0.90;0.73;;;;;;;;;;7328200;19;154004;-17
2021/10/30 13:29:30;;;;;;;0.60;0.60;;;;;;;;;;7332242;19;153564;-17
2021/10/30 13:32:04;;;;;;;2.38;0.82;;;;;;;;;;7328209;19;161889;-17
2021/10/30 13:34:37;;;;;;;0.77;0.77;;;;;;;;;;7322747;19;162375;-16
2021/10/30 13:37:09;;;;;;;;;;;;;;;;;;7326387;19;154143;-16
2021/10/30 13:39:41;;;;;;;0.60;0.60;;;;;;;;;;7324915;19;153322;-18
2021/10/30 13:42:13;;;;;;;1.88;0.90;;;;;;;;;;7329425;19;161940;-16
2021/10/30 13:44:44;;;;;;;1.00;0.90;;;;;;;;;;7333963;19;162458;-18
2021/10/30 13:47:18;;;;;;;1.58;0.88;;;;;;;;;;7332898;19;154158;-16
2021/10/30 13:49:50;;;;;;;0.75;0.60;;;;;;;;;;7334683;19;153656;-16
2021/10/30 13:52:21;;;;;;;1.23;0.87;;;;;;;;;;7332763;19;161878;-18
2021/10/30 13:54:53;;;;;;;0.50;0.50;;;;;;;;;;7332067;19;162548;-16
2021/10/30 13:57:24;;;;;;;3.50;1.30;;;;;;;;;;7333103;19;153982;-19
2021/10/30 13:59:56;;;;;;;1.00;0.80;;;;;;;;;;7331996;19;153532;-17
2021/10/30 14:02:30;;;;;;;2.67;0.85;;;;;;;;;;7332520;19;161937;-15
2021/10/30 14:05:05;;;;;;;1.30;0.88;;;;;;;;;;7336944;19;162759;-14
2021/10/30 14:07:36;;;;;;;2.58;0.70;;;;;;;;;;7335425;19;154060;-16
2021/10/30 14:10:09;;;;;;;2.53;1.00;;;;;;;;;;7329727;19;153776;-17
2021/10/30 14:12:41;;;;;;;2.08;0.80;;;;;;;;;;7332852;19;161826;-17
2021/10/30 14:15:12;;;;;;;0.75;0.68;;;;;;;;;;7332715;19;162535;-19
2021/10/30 14:17:47;;;;;;;1.38;0.85;;;;;;;;;;7330664;19;154058;-16
2021/10/30 14:20:18;;;;;;;1.02;0.80;;;;;;;;;;7328370;19;153549;-15
2021/10/30 14:22:49;;;;;;;1.27;0.93;;;;;;;;;;7330336;19;161928;-14
2021/10/30 14:25:21;;;;;;;0.82;0.80;;;;;;;;;;7332804;19;162637;-15
2021/10/30 14:27:52;;;;;;;1.15;0.70;;;;;;;;;;7333718;19;154056;-14
2021/10/30 14:30:25;;;;;;;1.20;0.70;;;;;;;;;;7336418;19;153528;-18
2021/10/30 14:32:59;;;;;;;0.50;0.50;;;;;;;;;;7332875;19;161912;-16
2021/10/30 14:35:31;;;;;;;0.60;0.60;;;;;;;;;;7333110;19;162569;-18
2021/10/30 14:38:02;;;;;;;0.63;0.60;;;;;;;;;;7333158;19;154137;-16
2021/10/30 14:40:34;;;;;;;0.90;0.70;;;;;;;;;;7332436;19;153654;-14
2021/10/30 14:43:06;;;;;;;0.80;0.60;;;;;;;;;;7325925;19;162097;-15
2021/10/30 14:45:38;;;;;;;0.90;0.70;;;;;;;;;;7332804;19;162604;-16
2021/10/30 14:48:13;;;;;;;0.63;0.63;;;;;;;;;;7335456;19;153998;-14
2021/10/30 14:50:44;;;;;;;0.75;0.60;;;;;;;;;;7333909;19;153514;-18
2021/10/30 14:53:16;;;;;;;1.98;0.80;;;;;;;;;;7334326;19;162499;-15
2021/10/30 14:55:48;;;;;;;3.42;0.70;;;;;;;;;;7334434;19;162565;-15
2021/10/30 14:58:20;;;;;;;2.03;0.80;;;;;;;;;;7335372;19;154004;-17
2021/10/30 15:00:52;;;;;;;2.70;0.60;;;;;;;;;;7335457;19;153921;-16
2021/10/30 15:03:26;;;;;;;1.15;0.60;;;;;;;;;;7330133;19;162091;-15
2021/10/30 15:05:57;;;;;;;0.85;0.60;;;;;;;;;;7328282;19;162497;-17
2021/10/30 15:08:28;;;;;;;0.70;0.70;;;;;;;;;;7333910;19;153988;-17
2021/10/30 15:11:00;;;;;;;0.90;0.60;;;;;;;;;;7334541;19;153618;-16
2021/10/30 15:13:40;;;;;;;1.27;0.50;;;;;;;;;;7335048;19;161970;-16
2021/10/30 15:16:11;;;;;;;0.60;0.60;;;;;;;;;;7331201;19;162397;-16
2021/10/30 15:18:45;;;;;;;2.05;0.98;;;;;;;;;;7331577;19;153998;-16
2021/10/30 15:21:16;;;;;;;1.23;0.68;;;;;;;;;;7331265;19;153500;-16
2021/10/30 15:23:48;;;;;;;1.48;0.57;;;;;;;;;;7330802;19;162062;-15
2021/10/30 15:26:28;;;;;;;1.42;0.70;;;;;;;;;;7329470;19;162368;-17
2021/10/30 15:29:00;;;;;;;1.23;0.80;;;;;;;;;;7331103;19;154308;-16
2021/10/30 15:31:31;;;;;;;1.50;0.60;;;;;;;;;;7326694;19;153621;-15
2021/10/30 15:34:05;;;;;;;0.93;0.50;;;;;;;;;;7330560;19;161867;-15
2021/10/30 15:36:36;;;;;;;1.20;0.60;;;;;;;;;;7323922;19;162699;-16
2021/10/30 15:39:08;;;;;;;1.42;0.77;;;;;;;;;;7334858;19;154612;-13
2021/10/30 15:41:45;;;;;;;0.65;0.60;;;;;;;;;;7335121;19;153541;-18
2021/10/30 15:44:16;;;;;;;1.20;0.75;;;;;;;;;;7329048;19;162105;-16
2021/10/30 15:46:50;;;;;;;2.17;0.60;;;;;;;;;;7329036;19;162396;-15
2021/10/30 15:49:25;;;;;;;1.30;0.55;;;;;;;;;;7330374;19;154325;-18
2021/10/30 15:51:57;;;;;;;1.20;0.63;;;;;;;;;;7329147;19;153581;-17
2021/10/30 15:54:29;;;;;;;2.20;0.80;;;;;;;;;;7328280;19;161786;-17
2021/10/30 15:57:01;;;;;;;0.93;0.50;;;;;;;;;;7326259;19;162429;-17
2021/10/30 15:59:36;;;;;;;1.60;0.65;;;;;;;;;;7324396;19;154394;-17
2021/10/30 16:02:07;;;;;;;0.50;0.50;;;;;;;;;;7334766;19;152999;-16
2021/10/30 16:04:41;;;;;;;0.95;0.65;;;;;;;;;;7329484;19;161895;-17
2021/10/30 16:07:13;;;;;;;0.60;0.60;;;;;;;;;;7329485;19;162989;-17
2021/10/30 16:09:46;;;;;;;0.70;0.50;;;;;;;;;;7330114;19;154119;-17
2021/10/30 16:12:19;;;;;;;1.17;0.50;;;;;;;;;;7328842;19;153895;-17
2021/10/30 16:14:53;;;;;;;0.50;0.50;;;;;;;;;;7329779;19;161784;-15
2021/10/30 16:17:25;;;;;;;0.93;0.55;;;;;;;;;;7329754;19;163694;-17
2021/10/30 16:19:59;;;;;;;1.63;0.77;;;;;;;;;;7320545;19;154039;-17
2021/10/30 16:22:30;;;;;;;2.00;0.50;;;;;;;;;;7333908;19;153580;-17
2021/10/30 16:25:01;;;;;;;1.23;0.80;;;;;;;;;;7324150;19;161810;-16
2021/10/30 16:27:35;;;;;;;1.95;0.73;;;;;;;;;;7333037;19;162769;-14
2021/10/30 16:30:08;;;;;;;3.95;0.82;;;;;;;;;;7330634;19;154330;-15
2021/10/30 16:32:39;;;;;;;2.63;0.70;;;;;;;;;;7329464;19;153662;-15
2021/10/30 16:35:13;;;;;;;1.15;0.65;;;;;;;;;;7330490;19;161995;-16
2021/10/30 16:37:45;;;;;;;2.97;0.95;;;;;;;;;;7330075;19;162321;-16
2021/10/30 16:40:16;;;;;;;3.55;0.90;;;;;;;;;;7329102;19;153951;-16
2021/10/30 16:42:48;;;;;;;1.40;0.68;;;;;;;;;;7330139;19;153512;-14
2021/10/30 16:45:20;;;;;;;2.57;0.70;;;;;;;;;;7330142;19;161584;-16
2021/10/30 16:47:51;;;;;;;2.58;0.77;;;;;;;;;;7321714;19;162196;-16
2021/10/30 16:50:28;;;;;;;1.60;0.63;;;;;;;;;;7325531;19;153987;-14
2021/10/30 16:52:59;;;;;;;1.45;0.60;;;;;;;;;;7327433;19;153495;-14
2021/10/30 16:55:31;;;;;;;1.25;0.63;;;;;;;;;;7328901;19;161860;-15
2021/10/30 16:58:02;;;;;;;2.13;0.90;;;;;;;;;;7329087;19;162405;-17
2021/10/30 17:00:34;;;;;;;1.00;0.60;;;;;;;;;;7328156;19;154094;-16
2021/10/30 17:03:06;;;;;;;2.33;0.90;;;;;;;;;;7329642;19;153810;-17
2021/10/30 17:05:40;;;;;;;2.38;1.13;;;;;;;;;;7327239;19;161788;-16
2021/10/30 17:08:13;;;;;;;3.63;1.00;;;;;;;;;;7328394;19;162349;-15
2021/10/30 17:10:44;;;;;;;0.80;0.80;;;;;;;;;;7328898;19;154121;-14
2021/10/30 17:13:16;;;;;;;3.67;1.00;;;;;;;;;;7327989;19;153692;-17
2021/10/30 17:15:47;;;;;;;3.80;1.20;;;;;;;;;;7327619;19;162032;-16
2021/10/30 17:18:19;;;;;;;1.25;0.90;;;;;;;;;;7336807;19;162537;-14
2021/10/30 17:20:53;;;;;;;1.63;0.98;;;;;;;;;;7334700;19;153916;-18
2021/10/30 17:23:26;;;;;;;1.10;0.80;;;;;;;;;;7335644;19;153472;-19
2021/10/30 17:25:57;;;;;;;1.00;0.70;;;;;;;;;;7334331;19;161871;-17
2021/10/30 17:28:29;;;;;;;1.55;0.82;;;;;;;;;;7327885;19;162429;-16
2021/10/30 17:31:00;;;;;;;3.05;0.95;;;;;;;;;;7337079;19;153997;-17
2021/10/30 17:33:32;;;;;;;1.75;0.90;;;;;;;;;;7333395;19;153527;-17
2021/10/30 17:36:06;;;;;;;1.85;0.77;;;;;;;;;;7333256;19;161868;-17
2021/10/30 17:38:38;;;;;;;1.05;0.73;;;;;;;;;;7334780;19;162515;-17
2021/10/30 17:41:09;;;;;;;0.80;0.60;;;;;;;;;;7332956;19;154039;-16
2021/10/30 17:43:40;;;;;;;2.03;0.80;;;;;;;;;;7333458;19;153672;-18
2021/10/30 17:46:12;;;;;;;1.55;0.88;;;;;;;;;;7334559;19;161966;-16
2021/10/30 17:48:44;;;;;;;1.40;0.70;;;;;;;;;;7332926;19;163373;-15
2021/10/30 17:51:19;;;;;;;0.85;0.65;;;;;;;;;;7334547;19;154067;-15
2021/10/30 17:53:51;;;;;;;0.95;0.73;;;;;;;;;;7334693;19;153580;-14
2021/10/30 17:56:23;;;;;;;;;;;;;;;;;;7334249;19;161970;-18
2021/10/30 17:58:55;;;;;;;1.10;0.80;;;;;;;;;;7334248;19;162827;-16
2021/10/30 18:01:27;;;;;;;0.93;0.70;;;;;;;;;;7333133;19;154015;-12
2021/10/30 18:03:58;;;;;;;0.70;0.60;;;;;;;;;;7334359;19;153836;-15
2021/10/30 18:06:32;;;;;;;0.90;0.80;;;;;;;;;;7331775;19;161997;-16
2021/10/30 18:09:06;;;;;;;1.23;0.70;;;;;;;;;;7333710;19;162438;-17
2021/10/30 18:11:38;;;;;;;1.00;0.73;;;;;;;;;;7333921;19;154063;-15
2021/10/30 18:14:09;;;;;;;0.90;0.90;;;;;;;;;;7334073;19;153538;-15
2021/10/30 18:16:41;;;;;;;0.93;0.70;;;;;;;;;;7333023;19;161782;-16
2021/10/30 18:19:12;;;;;;;1.15;0.80;;;;;;;;;;7333346;19;162353;-14
2021/10/30 18:21:47;;;;;;;0.60;0.60;;;;;;;;;;7332868;19;154082;-17
2021/10/30 18:24:19;;;;;;;1.23;0.57;;;;;;;;;;7333752;19;153561;-15
2021/10/30 18:26:51;;;;;;;0.63;0.50;;;;;;;;;;7333369;19;161810;-17
2021/10/30 18:29:23;;;;;;;0.85;0.85;;;;;;;;;;7332635;19;162439;-13
2021/10/30 18:31:55;;;;;;;7.10;6.43;;;;;;;;;;7333183;19;153973;-15
2021/10/30 18:34:26;;;;;;;5.00;4.50;;;;;;;;;;7333287;19;154927;-17
2021/10/30 18:37:00;;;;;;;5.13;3.90;;;;;;;;;;7335203;19;161793;-18
2021/10/30 18:39:36;;;;;;;2.22;2.03;;;;;;;;;;7335798;19;162467;-16
2021/10/30 18:42:08;;;;;;;1.60;1.50;;;;;;;;;;7331729;19;153983;-18
2021/10/30 18:44:39;;;;;;;3.05;1.88;;;;;;;;;;7333861;19;153586;-16
2021/10/30 18:47:11;;;;;;;3.93;2.10;;;;;;;;;;7334472;19;161597;-17
2021/10/30 18:49:42;;;;;;;2.88;2.10;;;;;;;;;;7329977;19;162326;-13
2021/10/30 18:52:16;;;;;;;2.88;2.33;;;;;;;;;;7335222;19;154162;-15
2021/10/30 18:54:48;;;;;;;2.42;1.90;;;;;;;;;;7335536;19;153351;-17
2021/10/30 18:57:20;;;;;;;2.10;2.00;;;;;;;;;;7335352;19;161917;-17
2021/10/30 18:59:51;;;;;;;2.05;1.85;;;;;;;;;;7330176;19;163031;-13
2021/10/30 19:02:23;;;;;;;2.47;2.25;;;;;;;;;;7333498;19;154053;-16
2021/10/30 19:04:55;;;;;;;1.83;1.73;;;;;;;;;;7332395;19;153716;-15
2021/10/30 19:07:31;;;;;;;2.00;1.85;;;;;;;;;;7334025;19;162065;-15
2021/10/30 19:10:04;;;;;;;2.88;2.60;;;;;;;;;;7334622;19;162580;-16
2021/10/30 19:12:36;;;;;;;3.30;3.00;;;;;;;;;;7335682;19;153964;-16
2021/10/30 19:15:09;;;;;;;2.90;2.70;;;;;;;;;;7332469;19;153619;-17
2021/10/30 19:17:41;;;;;;;3.53;3.17;;;;;;;;;;7333929;19;161829;-17
2021/10/30 19:20:14;;;;;;;2.95;2.75;;;;;;;;;;7333410;19;162389;-16
2021/10/30 19:22:47;;;;;;;;;;;;;;;;;;7333354;19;154321;-17
2021/10/30 19:25:19;;;;;;;3.83;3.10;;;;;;;;;;7333576;19;153753;-15
2021/10/30 19:27:53;;;;;;;2.95;2.70;;;;;;;;;;7331997;19;161926;-18
2021/10/30 19:30:24;;;;;;;2.80;2.60;;;;;;;;;;7332592;19;162405;-17
2021/10/30 19:32:56;;;;;;;3.05;2.83;;;;;;;;;;7334176;19;154262;-16
2021/10/30 19:35:27;;;;;;;2.88;2.63;;;;;;;;;;7333159;19;153666;-17
2021/10/30 19:38:02;;;;;;;3.17;2.87;;;;;;;;;;7332495;19;162017;-18
2021/10/30 19:40:34;;;;;;;2.97;2.72;;;;;;;;;;7330378;19;162681;-15
2021/10/30 19:43:05;;;;;;;2.92;2.72;;;;;;;;;;7329307;19;153982;-15
2021/10/30 19:45:37;;;;;;;3.83;2.70;;;;;;;;;;7331115;19;153652;-18
2021/10/30 19:48:09;;;;;;;2.97;2.78;;;;;;;;;;7333167;19;161859;-17
2021/10/30 19:50:40;;;;;;;3.05;2.75;;;;;;;;;;7331378;19;162663;-17
2021/10/30 19:53:14;;;;;;;3.20;2.90;;;;;;;;;;7323528;19;153984;-16
2021/10/30 19:55:45;;;;;;;2.78;2.58;;;;;;;;;;7332366;19;153533;-17
2021/10/30 19:58:17;;;;;;;3.53;3.10;;;;;;;;;;7332611;19;161531;-23
2021/10/30 20:00:48;;;;;;;3.78;3.30;;;;;;;;;;7330491;19;162712;-17
2021/10/30 20:03:19;;;;;;;3.58;3.28;;;;;;;;;;7329671;19;153983;-16
2021/10/30 20:05:51;;;;;;;3.40;3.10;;;;;;;;;;7327109;19;153599;-15
2021/10/30 20:08:29;;;;;;;3.10;2.80;;;;;;;;;;7328001;19;161817;-18
2021/10/30 20:11:02;;;;;;;3.03;2.83;;;;;;;;;;7331960;19;162657;-14
2021/10/30 20:13:34;;;;;;;3.30;3.00;;;;;;;;;;7334267;19;154973;-17
2021/10/30 20:16:06;;;;;;;3.45;3.15;;;;;;;;;;7335089;19;153506;-16
2021/10/30 20:18:38;;;;;;;3.25;2.95;;;;;;;;;;7330720;19;162068;-16
2021/10/30 20:21:10;;;;;;;4.40;2.73;;;;;;;;;;7330953;19;162665;-17
2021/10/30 20:23:46;;;;;;;3.60;3.30;;;;;;;;;;7331135;19;154042;-18
2021/10/30 20:26:17;;;;;;;3.03;2.78;;;;;;;;;;7332919;19;153566;-16
2021/10/30 20:28:49;;;;;;;3.30;3.05;;;;;;;;;;7328542;19;162164;-18
2021/10/30 20:31:21;;;;;;;3.45;3.15;;;;;;;;;;7331865;19;162402;-14
2021/10/30 20:33:52;;;;;;;3.35;3.10;;;;;;;;;;7332871;19;154041;-17
2021/10/30 20:36:29;;;;;;;3.30;3.00;;;;;;;;;;7328734;19;153530;-15
2021/10/30 20:39:08;;;;;;;2.97;2.75;;;;;;;;;;7332955;19;161885;-15
2021/10/30 20:41:43;;;;;;;3.15;2.95;;;;;;;;;;7330261;19;163063;-15
2021/10/30 20:44:16;;;;;;;3.30;3.10;;;;;;;;;;7330298;19;154209;-17
2021/10/30 20:46:51;;;;;;;3.17;2.80;;;;;;;;;;7331244;19;153676;-15
2021/10/30 20:49:24;;;;;;;3.22;3.00;;;;;;;;;;7331053;19;162284;-16
2021/10/30 20:51:58;;;;;;;2.90;2.70;;;;;;;;;;7325269;19;162587;-17
2021/10/30 20:54:36;;;;;;;3.63;2.53;;;;;;;;;;7327521;19;153972;-17
2021/10/30 20:57:10;;;;;;;3.47;3.03;;;;;;;;;;7326224;19;153530;-17
2021/10/30 20:59:42;;;;;;;2.70;2.50;;;;;;;;;;7326197;19;162293;-15
2021/10/30 21:02:17;;;;;;;2.63;2.42;;;;;;;;;;7327110;19;162530;-17
2021/10/30 21:04:54;;;;;;;2.83;2.60;;;;;;;;;;7325154;19;154235;-15
2021/10/30 21:07:26;;;;;;;3.03;2.72;;;;;;;;;;7330772;19;153562;-16
2021/10/30 21:10:00;;;;;;;2.63;2.43;;;;;;;;;;7327672;19;161971;-15
2021/10/30 21:12:31;;;;;;;2.90;2.70;;;;;;;;;;7325157;19;162377;-15
2021/10/30 21:15:03;;;;;;;2.80;2.60;;;;;;;;;;7327836;19;154006;-17
2021/10/30 21:17:34;;;;;;;3.00;2.75;;;;;;;;;;7328189;19;153492;-15
2021/10/30 21:20:07;;;;;;;2.35;2.25;;;;;;;;;;7328339;19;162568;-16
2021/10/30 21:22:38;;;;;;;2.67;2.47;;;;;;;;;;7328272;19;162308;-17
2021/10/30 21:25:13;;;;;;;2.67;2.35;;;;;;;;;;7325768;19;153975;-17
2021/10/30 21:27:44;;;;;;;2.60;2.40;;;;;;;;;;7328073;19;153595;-15
2021/10/30 21:30:17;;;;;;;2.58;2.38;;;;;;;;;;7327905;19;162064;-18
2021/10/30 21:32:49;;;;;;;;;;;;;;;;;;7330352;19;162608;-16
2021/10/30 21:35:22;;;;;;;2.70;2.13;;;;;;;;;;7328408;19;154323;-14
2021/10/30 21:37:53;;;;;;;;;;;;;;;;;;7328252;19;153501;-16
2021/10/30 21:40:27;;;;;;;2.70;2.50;;;;;;;;;;7327579;19;162042;-17
2021/10/30 21:42:59;;;;;;;2.38;2.20;;;;;;;;;;7327367;19;162468;-16
2021/10/30 21:45:30;;;;;;;2.40;2.20;;;;;;;;;;7327237;19;154044;-16
2021/10/30 21:48:02;;;;;;;3.58;2.38;;;;;;;;;;7332119;19;153516;-14
2021/10/30 21:50:33;;;;;;;2.28;2.17;;;;;;;;;;7329476;19;164828;-17
2021/10/30 21:53:05;;;;;;;2.10;2.00;;;;;;;;;;7322518;19;162483;-16
2021/10/30 21:55:39;;;;;;;2.33;2.13;;;;;;;;;;7319236;19;153995;-17
2021/10/30 21:58:11;;;;;;;2.40;2.20;;;;;;;;;;7320437;19;153506;-19
2021/10/30 22:00:49;;;;;;;2.43;1.97;;;;;;;;;;7317752;19;162002;-17
2021/10/30 22:03:20;;;;;;;2.08;1.98;;;;;;;;;;7325172;19;162425;-17
2021/10/30 22:05:52;;;;;;;2.20;1.77;;;;;;;;;;7328051;19;154184;-18
2021/10/30 22:08:24;;;;;;;2.10;2.00;;;;;;;;;;7329999;19;153782;-18
2021/10/30 22:10:59;;;;;;;1.80;1.70;;;;;;;;;;7326173;19;161950;-16
2021/10/30 22:13:31;;;;;;;1.88;1.77;;;;;;;;;;7330044;19;162351;-16
2021/10/30 22:16:04;;;;;;;;;;;;;;;;;;7335314;19;154161;-16
2021/10/30 22:18:35;;;;;;;2.95;2.00;;;;;;;;;;7327574;19;153418;-16
2021/10/30 22:21:09;;;;;;;2.10;1.90;;;;;;;;;;7327257;19;161800;-18
2021/10/30 22:23:41;;;;;;;1.80;1.70;;;;;;;;;;7336323;19;162402;-16
2021/10/30 22:26:17;;;;;;;2.17;1.67;;;;;;;;;;7337296;19;154243;-17
2021/10/30 22:28:49;;;;;;;2.08;1.65;;;;;;;;;;7334069;19;153742;-15
2021/10/30 22:31:22;;;;;;;1.80;1.70;;;;;;;;;;7333681;19;161922;-15
2021/10/30 22:33:53;;;;;;;1.80;1.70;;;;;;;;;;7333446;19;162680;-15
2021/10/30 22:36:25;;;;;;;1.63;1.52;;;;;;;;;;7338522;19;153892;-16
2021/10/30 22:38:56;;;;;;;1.98;1.80;;;;;;;;;;7333999;19;153640;-17
2021/10/30 22:41:30;;;;;;;1.70;1.60;;;;;;;;;;7332266;19;162121;-16
2021/10/30 22:44:01;;;;;;;1.58;1.48;;;;;;;;;;7332591;19;162361;-18
2021/10/30 22:46:33;;;;;;;1.80;1.70;;;;;;;;;;7336801;19;153980;-15
2021/10/30 22:49:06;;;;;;;2.05;1.60;;;;;;;;;;7332246;19;153570;-15
2021/10/30 22:51:37;;;;;;;1.75;1.40;;;;;;;;;;7333262;19;161989;-16
2021/10/30 22:54:08;;;;;;;1.92;1.77;;;;;;;;;;7333246;19;162362;-16
2021/10/30 22:56:42;;;;;;;1.88;1.77;;;;;;;;;;7332314;19;154076;-17
2021/10/30 22:59:14;;;;;;;1.40;1.30;;;;;;;;;;7333405;19;153688;-16
2021/10/30 23:01:45;;;;;;;2.20;1.42;;;;;;;;;;7332774;19;161868;-18
2021/10/30 23:04:18;;;;;;;1.50;1.40;;;;;;;;;;7330393;19;162511;-25
2021/10/30 23:06:50;;;;;;;1.52;1.42;;;;;;;;;;7329651;19;153944;-18
2021/10/30 23:09:22;;;;;;;1.73;1.63;;;;;;;;;;7331052;19;153591;-14
2021/10/30 23:12:00;;;;;;;1.70;1.60;;;;;;;;;;7332329;19;161786;-17
2021/10/30 23:14:33;;;;;;;1.48;1.38;;;;;;;;;;7331788;19;162452;-16
2021/10/30 23:17:05;;;;;;;1.40;1.30;;;;;;;;;;7332744;19;154211;-16
2021/10/30 23:19:37;;;;;;;1.67;1.55;;;;;;;;;;7332619;19;153920;-15
2021/10/30 23:22:09;;;;;;;1.52;1.42;;;;;;;;;;7332182;19;161887;-16